Time;durP1;ratioP1;P1;durP2;ratioP2;P2;SDS_P1;SDS_P2;PMS_P1;PMS_P2;Temp;Humidity;BMP_temperature;BMP_pressure;BME280_temperature;BME280_humidity;BME280_pressure;Samples;Min_cycle;Max_cycle;Signal;HPM_P1;HPM_P2
2022/10/04 00:00:25;;;;;;;6.83;2.57;;;;;;;;;;5016095;28;95164;-48
2022/10/04 00:02:53;;;;;;;6.13;2.00;;;;;;;;;;5010867;28;93699;-48
2022/10/04 00:05:22;;;;;;;3.77;2.40;;;;;;;;;;4996243;28;92042;-48
2022/10/04 00:07:51;;;;;;;4.73;2.30;;;;;;;;;;5028969;28;92082;-47
2022/10/04 00:10:22;;;;;;;8.30;3.40;;;;;;;;;;5017821;28;94290;-47
2022/10/04 00:12:51;;;;;;;3.13;1.90;;;;;;;;;;5018570;28;92744;-47
2022/10/04 00:15:20;;;;;;;4.57;2.13;;;;;;;;;;5023053;28;92055;-47
2022/10/04 00:18:00;;;;;;;4.00;2.30;;;;;;;;;;5011657;28;91572;-48
2022/10/04 00:20:55;;;;;;;3.87;1.73;;;;;;;;;;5024541;28;94320;-48
2022/10/04 00:23:28;;;;;;;2.23;1.87;;;;;;;;;;4965585;28;92205;-47
2022/10/04 00:25:59;;;;;;;2.53;1.87;;;;;;;;;;5021178;28;94500;-47
2022/10/04 00:28:31;;;;;;;4.90;2.57;;;;;;;;;;5022334;28;92075;-47
2022/10/04 00:31:10;;;;;;;5.40;2.10;;;;;;;;;;5023664;28;94293;-47
2022/10/04 00:33:38;;;;;;;3.53;2.60;;;;;;;;;;5024737;28;93870;-47
2022/10/04 00:36:22;;;;;;;2.83;1.70;;;;;;;;;;5025657;28;92138;-47
2022/10/04 00:39:02;;;;;;;8.53;2.37;;;;;;;;;;5004531;28;92064;-48
2022/10/04 00:41:31;;;;;;;2.77;1.93;;;;;;;;;;5022768;28;93741;-48
2022/10/04 00:44:00;;;;;;;1.87;1.40;;;;;;;;;;5025059;28;95087;-49
2022/10/04 00:46:28;;;;;;;3.07;1.63;;;;;;;;;;5024722;28;92120;-47
2022/10/04 00:48:56;;;;;;;2.87;1.73;;;;;;;;;;5023898;28;92275;-47
2022/10/04 00:51:26;;;;;;;3.40;2.20;;;;;;;;;;5023045;28;95133;-48
2022/10/04 00:53:57;;;;;;;3.60;1.93;;;;;;;;;;5024219;28;95015;-48
2022/10/04 00:56:27;;;;;;;3.17;1.70;;;;;;;;;;5024459;28;92064;-48
2022/10/04 00:59:06;;;;;;;2.83;1.50;;;;;;;;;;5023581;28;92265;-47
2022/10/04 01:01:35;;;;;;;2.07;1.50;;;;;;;;;;5023753;28;93136;-47
2022/10/04 01:04:03;;;;;;;2.77;1.80;;;;;;;;;;5024236;28;92793;-48
2022/10/04 01:06:31;;;;;;;1.97;1.77;;;;;;;;;;5024576;28;92123;-49
2022/10/04 01:09:02;;;;;;;2.30;1.43;;;;;;;;;;5024419;28;92266;-47
2022/10/04 01:11:30;;;;;;;2.30;1.33;;;;;;;;;;5024026;28;93243;-48
2022/10/04 01:13:59;;;;;;;1.63;1.47;;;;;;;;;;5022895;28;92802;-48
2022/10/04 01:16:29;;;;;;;2.57;1.30;;;;;;;;;;5023567;28;93050;-48
2022/10/04 01:18:58;;;;;;;2.43;1.53;;;;;;;;;;5023729;28;92892;-48
2022/10/04 01:21:28;;;;;;;2.80;1.70;;;;;;;;;;5023910;28;93003;-48
2022/10/04 01:24:11;;;;;;;4.50;1.70;;;;;;;;;;5022677;28;92722;-47
2022/10/04 01:26:41;;;;;;;1.60;1.30;;;;;;;;;;5012813;28;92277;-47
2022/10/04 01:29:10;;;;;;;2.10;1.43;;;;;;;;;;5014801;28;94140;-47
2022/10/04 01:31:39;;;;;;;2.50;1.40;;;;;;;;;;5018677;28;94421;-47
2022/10/04 01:34:08;;;;;;;1.27;1.17;;;;;;;;;;5015939;28;93955;-48
2022/10/04 01:36:36;;;;;;;1.57;1.00;;;;;;;;;;5013851;28;93358;-47
2022/10/04 01:39:05;;;;;;;1.57;1.47;;;;;;;;;;5015182;28;92699;-48
2022/10/04 01:41:37;;;;;;;1.60;1.47;;;;;;;;;;5019339;28;94079;-47
2022/10/04 01:44:07;;;;;;;1.33;1.23;;;;;;;;;;5020394;28;94537;-48
2022/10/04 01:46:35;;;;;;;3.17;1.60;;;;;;;;;;5020801;28;92064;-48
2022/10/04 01:49:04;;;;;;;4.53;1.47;;;;;;;;;;5020328;28;93298;-47
2022/10/04 01:51:34;;;;;;;2.23;1.40;;;;;;;;;;5020214;28;92975;-48
2022/10/04 01:54:03;;;;;;;2.37;1.43;;;;;;;;;;5019714;28;93917;-48
2022/10/04 01:56:32;;;;;;;1.30;1.13;;;;;;;;;;5020226;28;92126;-47
2022/10/04 01:59:02;;;;;;;2.13;1.27;;;;;;;;;;5020560;28;91413;-48
2022/10/04 02:01:33;;;;;;;1.07;0.97;;;;;;;;;;5020051;28;93295;-48
2022/10/04 02:04:01;;;;;;;3.43;1.57;;;;;;;;;;5019575;28;93830;-47
2022/10/04 02:06:30;;;;;;;3.17;1.30;;;;;;;;;;5020295;28;92852;-47
2022/10/04 02:08:58;;;;;;;4.33;1.53;;;;;;;;;;5020473;28;92056;-47
2022/10/04 02:11:30;;;;;;;1.90;1.37;;;;;;;;;;5019751;28;94112;-47
2022/10/04 02:13:59;;;;;;;1.80;1.50;;;;;;;;;;5019080;28;93896;-47
2022/10/04 02:16:27;;;;;;;1.50;1.40;;;;;;;;;;5020187;28;92367;-47
2022/10/04 02:18:57;;;;;;;1.53;1.07;;;;;;;;;;5020679;28;92099;-48
2022/10/04 02:21:25;;;;;;;1.43;1.27;;;;;;;;;;5019348;28;94221;-46
2022/10/04 02:23:53;;;;;;;0.80;0.80;;;;;;;;;;5008195;28;92683;-47
2022/10/04 02:26:22;;;;;;;2.50;1.53;;;;;;;;;;5019912;28;92100;-47
2022/10/04 02:28:50;;;;;;;2.50;1.33;;;;;;;;;;5019230;28;92852;-47
2022/10/04 02:34:12;;;;;;;2.30;1.30;;;;;;;;;;4945049;28;93648;-48
2022/10/04 02:36:41;;;;;;;1.83;1.10;;;;;;;;;;5019428;28;92180;-47
2022/10/04 02:39:10;;;;;;;1.77;1.30;;;;;;;;;;5007456;28;92200;-47
2022/10/04 02:41:38;;;;;;;1.20;1.10;;;;;;;;;;5019310;28;94080;-47
2022/10/04 02:44:10;;;;;;;2.50;1.30;;;;;;;;;;5019441;28;92029;-48
2022/10/04 02:46:39;;;;;;;2.20;1.00;;;;;;;;;;5018661;28;91922;-47
2022/10/04 02:49:11;;;;;;;1.60;1.00;;;;;;;;;;5019355;28;91469;-47
2022/10/04 02:51:41;;;;;;;1.30;1.20;;;;;;;;;;5019476;28;93144;-47
2022/10/04 02:54:11;;;;;;;1.30;1.03;;;;;;;;;;5019191;28;94085;-47
2022/10/04 02:56:40;;;;;;;1.43;1.10;;;;;;;;;;5018977;28;93100;-47
2022/10/04 02:59:08;;;;;;;1.50;1.20;;;;;;;;;;5019224;28;92143;-47
2022/10/04 03:01:40;;;;;;;1.37;1.27;;;;;;;;;;5019122;28;93836;-47
2022/10/04 03:04:09;;;;;;;1.63;1.13;;;;;;;;;;5019664;28;92973;-48
2022/10/04 03:06:38;;;;;;;1.73;1.13;;;;;;;;;;5019403;28;92121;-48
2022/10/04 03:09:07;;;;;;;2.03;1.30;;;;;;;;;;5018756;28;92052;-47
2022/10/04 03:11:36;;;;;;;2.50;1.20;;;;;;;;;;5011251;28;94279;-47
2022/10/04 03:14:05;;;;;;;4.30;1.73;;;;;;;;;;5008990;28;93845;-47
2022/10/04 03:16:36;;;;;;;3.27;1.90;;;;;;;;;;5016707;28;92379;-48
2022/10/04 03:19:05;;;;;;;2.63;1.50;;;;;;;;;;5018382;28;92013;-47
2022/10/04 03:21:33;;;;;;;2.83;1.70;;;;;;;;;;5017878;28;94065;-47
2022/10/04 03:24:01;;;;;;;2.50;1.97;;;;;;;;;;5018604;28;93513;-48
2022/10/04 03:26:32;;;;;;;3.20;2.00;;;;;;;;;;5018937;28;93976;-48
2022/10/04 03:29:01;;;;;;;2.83;2.13;;;;;;;;;;5018880;28;92056;-48
2022/10/04 03:31:29;;;;;;;5.37;2.27;;;;;;;;;;5018881;28;94104;-48
2022/10/04 03:33:57;;;;;;;3.93;2.63;;;;;;;;;;5018387;28;94097;-48
2022/10/04 03:36:26;;;;;;;2.43;2.10;;;;;;;;;;5018373;28;92207;-48
2022/10/04 03:38:56;;;;;;;2.63;1.80;;;;;;;;;;5019597;28;91390;-48
2022/10/04 03:41:24;;;;;;;2.97;2.43;;;;;;;;;;5000496;28;94078;-48
2022/10/04 03:43:54;;;;;;;3.03;2.20;;;;;;;;;;5018029;28;92835;-47
2022/10/04 03:46:23;;;;;;;4.47;2.70;;;;;;;;;;5018424;28;93194;-48
2022/10/04 03:48:51;;;;;;;5.37;2.20;;;;;;;;;;5017232;28;92065;-48
2022/10/04 03:51:20;;;;;;;5.43;2.17;;;;;;;;;;5017439;28;94164;-48
2022/10/04 03:53:49;;;;;;;4.50;2.43;;;;;;;;;;5018224;28;92771;-48
2022/10/04 03:56:18;;;;;;;3.23;2.43;;;;;;;;;;5017459;28;91844;-47
2022/10/04 03:58:46;;;;;;;6.00;2.77;;;;;;;;;;5017902;28;92124;-47
2022/10/04 04:01:18;;;;;;;1.57;1.47;;;;;;;;;;5017761;28;92883;-47
2022/10/04 04:03:51;;;;;;;2.57;1.63;;;;;;;;;;5019000;28;92685;-47
2022/10/04 04:06:19;;;;;;;3.53;2.30;;;;;;;;;;5016509;28;92434;-49
2022/10/04 04:08:48;;;;;;;4.07;2.63;;;;;;;;;;5017190;28;92695;-47
2022/10/04 04:11:18;;;;;;;3.03;1.80;;;;;;;;;;5012889;28;94237;-47
2022/10/04 04:13:48;;;;;;;3.27;2.00;;;;;;;;;;5014047;28;93918;-48
2022/10/04 04:16:17;;;;;;;4.13;2.33;;;;;;;;;;5017674;28;92062;-47
2022/10/04 04:18:45;;;;;;;2.63;1.80;;;;;;;;;;5018573;28;92258;-47
2022/10/04 04:21:15;;;;;;;3.50;2.40;;;;;;;;;;5018147;28;94523;-48
2022/10/04 04:23:44;;;;;;;5.17;2.20;;;;;;;;;;5018361;28;92862;-47
2022/10/04 04:26:15;;;;;;;7.67;2.93;;;;;;;;;;5006741;28;92508;-47
2022/10/04 04:28:47;;;;;;;7.77;2.20;;;;;;;;;;5009112;28;91415;-47
2022/10/04 04:31:18;;;;;;;4.20;2.50;;;;;;;;;;5016458;28;93304;-47
2022/10/04 04:33:49;;;;;;;3.87;1.67;;;;;;;;;;5018265;28;93861;-47
2022/10/04 04:36:17;;;;;;;6.13;2.00;;;;;;;;;;4998845;28;92696;-47
2022/10/04 04:41:34;;;;;;;2.67;2.43;;;;;;;;;;5008128;28;94317;-47
2022/10/04 04:44:03;;;;;;;5.13;2.33;;;;;;;;;;5017954;28;92952;-47
2022/10/04 04:46:33;;;;;;;2.63;1.93;;;;;;;;;;5018231;28;93592;-48
2022/10/04 04:49:02;;;;;;;3.23;1.53;;;;;;;;;;5002055;28;92206;-48
2022/10/04 04:51:31;;;;;;;1.53;1.33;;;;;;;;;;5017054;28;93178;-47
2022/10/04 04:53:59;;;;;;;3.47;1.90;;;;;;;;;;5017739;28;93685;-47
2022/10/04 04:56:28;;;;;;;4.70;2.03;;;;;;;;;;5014573;28;92061;-47
2022/10/04 04:58:58;;;;;;;2.43;1.70;;;;;;;;;;5017814;28;92074;-47
2022/10/04 05:01:27;;;;;;;1.63;1.20;;;;;;;;;;5020598;28;94196;-47
2022/10/04 05:04:04;;;;;;;4.50;1.93;;;;;;;;;;5020400;28;93746;-47
2022/10/04 05:06:32;;;;;;;2.00;1.83;;;;;;;;;;5021609;28;92115;-47
2022/10/04 05:09:01;;;;;;;2.53;1.53;;;;;;;;;;5019489;28;92138;-47
2022/10/04 05:11:30;;;;;;;2.13;1.50;;;;;;;;;;5015235;28;93897;-47
2022/10/04 05:13:59;;;;;;;2.43;1.63;;;;;;;;;;5019529;28;92814;-47
2022/10/04 05:16:28;;;;;;;4.67;1.60;;;;;;;;;;5021748;28;92087;-47
2022/10/04 05:18:57;;;;;;;5.83;2.03;;;;;;;;;;5021353;28;92969;-47
2022/10/04 05:21:28;;;;;;;2.07;1.33;;;;;;;;;;5021007;28;93196;-47
2022/10/04 05:23:56;;;;;;;3.23;1.73;;;;;;;;;;5020759;28;92686;-47
2022/10/04 05:26:25;;;;;;;2.70;1.83;;;;;;;;;;5020780;28;92967;-47
2022/10/04 05:28:53;;;;;;;1.77;1.23;;;;;;;;;;5020572;28;92057;-47
2022/10/04 05:31:27;;;;;;;2.23;1.43;;;;;;;;;;5020794;28;93202;-47
2022/10/04 05:33:56;;;;;;;4.03;1.87;;;;;;;;;;5020374;28;93819;-47
2022/10/04 05:36:57;;;;;;;1.77;1.50;;;;;;;;;;5021772;28;92077;-47
2022/10/04 05:39:28;;;;;;;2.33;1.23;;;;;;;;;;4939154;28;92200;-47
2022/10/04 05:42:02;;;;;;;1.77;1.17;;;;;;;;;;4944493;28;93107;-48
2022/10/04 05:44:30;;;;;;;1.53;1.40;;;;;;;;;;4980016;28;91772;-47
2022/10/04 05:46:59;;;;;;;2.83;1.17;;;;;;;;;;5020609;28;92025;-46
2022/10/04 05:49:29;;;;;;;1.23;1.13;;;;;;;;;;5019484;28;92032;-47
2022/10/04 05:51:59;;;;;;;1.90;1.50;;;;;;;;;;5012440;28;95184;-46
2022/10/04 05:54:31;;;;;;;3.83;1.27;;;;;;;;;;5019961;28;94861;-47
2022/10/04 05:57:04;;;;;;;1.03;0.93;;;;;;;;;;5019760;28;92196;-46
2022/10/04 05:59:38;;;;;;;1.60;1.50;;;;;;;;;;5020096;28;92174;-46
2022/10/04 06:02:08;;;;;;;3.03;1.50;;;;;;;;;;5019702;28;93193;-47
2022/10/04 06:04:48;;;;;;;1.27;0.90;;;;;;;;;;5019577;28;92037;-47
2022/10/04 06:07:19;;;;;;;1.57;1.20;;;;;;;;;;5020867;28;92021;-47
2022/10/04 06:10:00;;;;;;;2.70;1.37;;;;;;;;;;5020305;28;91351;-47
2022/10/04 06:12:32;;;;;;;1.43;0.93;;;;;;;;;;5014727;28;94105;-47
2022/10/04 06:15:08;;;;;;;1.27;1.17;;;;;;;;;;5020323;28;92838;-47
2022/10/04 06:17:43;;;;;;;1.47;1.37;;;;;;;;;;5020271;28;92863;-47
2022/10/04 06:20:19;;;;;;;4.97;1.47;;;;;;;;;;5014358;28;92075;-48
2022/10/04 06:22:47;;;;;;;1.77;1.60;;;;;;;;;;5018355;28;94305;-48
2022/10/04 06:25:18;;;;;;;2.73;1.37;;;;;;;;;;5019266;28;94121;-47
2022/10/04 06:27:49;;;;;;;2.37;1.33;;;;;;;;;;5019528;28;91902;-48
2022/10/04 06:30:17;;;;;;;1.10;1.00;;;;;;;;;;5020205;28;91953;-46
2022/10/04 06:33:01;;;;;;;1.90;1.00;;;;;;;;;;5019813;28;93055;-46
2022/10/04 06:35:46;;;;;;;2.87;0.90;;;;;;;;;;5020152;28;92510;-47
2022/10/04 06:38:45;;;;;;;2.03;1.20;;;;;;;;;;4979904;28;92761;-48
2022/10/04 06:41:21;;;;;;;2.43;1.20;;;;;;;;;;5019393;28;94206;-47
2022/10/04 06:43:52;;;;;;;1.30;1.20;;;;;;;;;;5018329;28;94160;-47
2022/10/04 06:46:23;;;;;;;2.17;0.97;;;;;;;;;;5018667;28;94781;-48
2022/10/04 06:48:56;;;;;;;2.00;1.10;;;;;;;;;;5019451;28;92200;-48
2022/10/04 06:51:28;;;;;;;2.63;1.03;;;;;;;;;;5015543;28;93233;-47
2022/10/04 06:53:59;;;;;;;1.70;1.43;;;;;;;;;;5019851;28;94175;-48
2022/10/04 06:56:31;;;;;;;1.33;1.20;;;;;;;;;;5019240;28;93980;-47
2022/10/04 06:59:15;;;;;;;2.43;1.13;;;;;;;;;;5019245;28;92092;-48
2022/10/04 07:01:47;;;;;;;1.87;1.10;;;;;;;;;;5000126;28;91375;-48
2022/10/04 07:04:20;;;;;;;1.97;1.30;;;;;;;;;;5018805;28;93086;-48
2022/10/04 07:06:51;;;;;;;0.90;0.90;;;;;;;;;;5018649;28;93763;-48
2022/10/04 07:09:20;;;;;;;2.47;1.10;;;;;;;;;;5017421;28;93371;-47
2022/10/04 07:11:51;;;;;;;1.30;1.20;;;;;;;;;;5017215;28;92139;-47
2022/10/04 07:14:20;;;;;;;1.30;1.20;;;;;;;;;;5018710;28;93132;-47
2022/10/04 07:16:49;;;;;;;1.87;1.13;;;;;;;;;;5019129;28;92577;-47
2022/10/04 07:19:25;;;;;;;1.17;0.83;;;;;;;;;;5018925;28;92092;-47
2022/10/04 07:21:54;;;;;;;1.93;1.10;;;;;;;;;;5012015;28;92356;-47
2022/10/04 07:24:24;;;;;;;2.10;1.07;;;;;;;;;;5019255;28;92924;-48
2022/10/04 07:26:54;;;;;;;5.43;1.50;;;;;;;;;;5019327;28;92762;-47
2022/10/04 07:29:22;;;;;;;1.77;1.03;;;;;;;;;;5018514;28;91976;-47
2022/10/04 07:31:52;;;;;;;1.10;0.70;;;;;;;;;;5019014;28;92252;-47
2022/10/04 07:34:22;;;;;;;1.00;0.87;;;;;;;;;;5018347;28;95103;-48
2022/10/04 07:36:51;;;;;;;1.30;1.10;;;;;;;;;;5017527;28;94871;-47
2022/10/04 07:39:19;;;;;;;4.60;1.50;;;;;;;;;;5018511;28;92092;-47
2022/10/04 07:41:51;;;;;;;1.40;1.30;;;;;;;;;;5018680;28;93147;-47
2022/10/04 07:44:26;;;;;;;1.57;1.27;;;;;;;;;;5013278;28;93228;-47
2022/10/04 07:46:55;;;;;;;3.03;1.50;;;;;;;;;;5016974;28;92886;-47
2022/10/04 07:49:23;;;;;;;2.03;1.83;;;;;;;;;;5017253;28;92823;-47
2022/10/04 07:52:07;;;;;;;1.37;1.00;;;;;;;;;;5007366;28;91348;-47
2022/10/04 07:54:37;;;;;;;4.20;1.53;;;;;;;;;;5015843;28;93961;-47
2022/10/04 07:57:07;;;;;;;1.10;1.03;;;;;;;;;;5015350;28;93700;-47
2022/10/04 07:59:40;;;;;;;2.40;1.13;;;;;;;;;;5014309;28;94986;-47
2022/10/04 08:02:15;;;;;;;2.23;1.67;;;;;;;;;;5018455;28;91970;-47
2022/10/04 08:04:45;;;;;;;3.43;1.50;;;;;;;;;;5017293;28;92844;-47
2022/10/04 08:07:15;;;;;;;7.83;2.20;;;;;;;;;;5017898;28;94017;-51
2022/10/04 08:09:46;;;;;;;3.77;1.03;;;;;;;;;;5018946;28;92056;-51
2022/10/04 08:12:21;;;;;;;1.60;1.50;;;;;;;;;;5018371;28;92021;-50
2022/10/04 08:15:01;;;;;;;5.23;1.20;;;;;;;;;;5017406;28;94094;-51
2022/10/04 08:17:46;;;;;;;3.13;1.30;;;;;;;;;;5018194;28;92991;-49
2022/10/04 08:20:21;;;;;;;1.63;1.17;;;;;;;;;;5017568;28;92126;-48
2022/10/04 08:22:53;;;;;;;2.40;1.40;;;;;;;;;;5000506;28;94677;-48
2022/10/04 08:25:22;;;;;;;3.10;2.00;;;;;;;;;;5017529;28;94819;-48
2022/10/04 08:30:45;;;;;;;4.10;1.60;;;;;;;;;;5018484;28;92069;-48
2022/10/04 08:33:17;;;;;;;2.00;1.80;;;;;;;;;;5018800;28;92064;-49
2022/10/04 08:35:45;;;;;;;4.33;1.27;;;;;;;;;;5009367;28;93329;-49
2022/10/04 08:38:18;;;;;;;5.67;2.10;;;;;;;;;;5022152;28;93475;-49
2022/10/04 08:41:06;;;;;;;2.40;1.70;;;;;;;;;;5022092;28;91970;-49
2022/10/04 08:43:59;;;;;;;3.03;1.13;;;;;;;;;;5022380;28;91240;-49
2022/10/04 08:46:42;;;;;;;2.67;1.90;;;;;;;;;;4997992;28;94179;-49
2022/10/04 08:49:18;;;;;;;1.90;1.53;;;;;;;;;;5018736;28;92160;-48
2022/10/04 08:52:01;;;;;;;5.03;2.03;;;;;;;;;;5012566;28;92963;-48
2022/10/04 08:54:55;;;;;;;3.17;1.37;;;;;;;;;;4948906;28;92218;-48
2022/10/04 08:57:32;;;;;;;2.03;1.23;;;;;;;;;;4982529;28;94662;-48
2022/10/04 09:00:08;;;;;;;3.63;1.73;;;;;;;;;;5021813;28;93859;-48
2022/10/04 09:02:52;;;;;;;2.90;1.50;;;;;;;;;;5022057;28;92133;-48
2022/10/04 09:05:36;;;;;;;1.70;1.47;;;;;;;;;;5018733;28;92125;-48
2022/10/04 09:08:16;;;;;;;3.33;1.90;;;;;;;;;;5019239;28;94272;-48
2022/10/04 09:11:00;;;;;;;1.67;1.50;;;;;;;;;;5021481;28;93772;-48
2022/10/04 09:13:34;;;;;;;2.03;1.37;;;;;;;;;;5016472;28;93705;-48
2022/10/04 09:16:20;;;;;;;1.17;0.90;;;;;;;;;;5021476;28;92118;-48
2022/10/04 09:18:52;;;;;;;2.77;1.97;;;;;;;;;;5020575;28;94934;-48
2022/10/04 09:21:26;;;;;;;2.50;1.60;;;;;;;;;;5016811;28;94778;-48
2022/10/04 09:24:03;;;;;;;1.57;1.33;;;;;;;;;;5014315;28;92178;-48
2022/10/04 09:26:32;;;;;;;4.77;1.67;;;;;;;;;;5021775;28;92118;-48
2022/10/04 09:29:13;;;;;;;2.03;1.43;;;;;;;;;;5021243;28;94201;-48
2022/10/04 09:31:46;;;;;;;3.63;1.33;;;;;;;;;;5020198;28;93968;-48
2022/10/04 09:34:21;;;;;;;6.23;1.60;;;;;;;;;;5021017;28;92067;-48
2022/10/04 09:36:58;;;;;;;1.07;0.97;;;;;;;;;;5021303;28;91278;-48
2022/10/04 09:39:44;;;;;;;2.50;1.50;;;;;;;;;;5021077;28;93387;-48
2022/10/04 09:42:26;;;;;;;2.90;1.80;;;;;;;;;;5020629;28;93959;-48
2022/10/04 09:45:13;;;;;;;1.60;1.50;;;;;;;;;;5008914;28;93067;-48
2022/10/04 09:47:44;;;;;;;2.40;2.03;;;;;;;;;;5019802;28;92078;-49
2022/10/04 09:50:32;;;;;;;3.17;1.37;;;;;;;;;;5020625;28;94098;-50
2022/10/04 09:53:01;;;;;;;3.57;1.20;;;;;;;;;;5020605;28;93780;-47
2022/10/04 09:55:35;;;;;;;7.10;1.63;;;;;;;;;;5021480;28;91783;-49
2022/10/04 09:58:27;;;;;;;2.47;1.20;;;;;;;;;;5021347;28;91897;-50
2022/10/04 10:00:59;;;;;;;2.60;1.53;;;;;;;;;;5007243;28;93217;-48
2022/10/04 10:03:37;;;;;;;1.57;1.17;;;;;;;;;;5002233;28;92723;-48
2022/10/04 10:06:09;;;;;;;1.67;1.30;;;;;;;;;;5010358;28;92072;-48
2022/10/04 10:08:40;;;;;;;1.10;1.00;;;;;;;;;;5016044;28;92411;-48
2022/10/04 10:14:01;;;;;;;2.00;1.10;;;;;;;;;;5020389;28;94673;-49
2022/10/04 10:16:39;;;;;;;1.57;1.10;;;;;;;;;;5020802;28;92475;-48
2022/10/04 10:19:19;;;;;;;1.70;1.40;;;;;;;;;;5020715;28;92032;-48
2022/10/04 10:21:52;;;;;;;1.70;1.23;;;;;;;;;;5015573;28;93349;-49
2022/10/04 10:24:37;;;;;;;1.50;0.80;;;;;;;;;;5000500;28;93796;-49
2022/10/04 10:27:10;;;;;;;3.03;1.43;;;;;;;;;;5000767;28;91986;-49
2022/10/04 10:29:46;;;;;;;2.73;1.47;;;;;;;;;;5001156;28;91318;-48
2022/10/04 10:32:28;;;;;;;1.20;0.83;;;;;;;;;;4999646;28;92113;-48
2022/10/04 10:35:08;;;;;;;2.43;1.00;;;;;;;;;;4999926;28;93925;-49
2022/10/04 10:37:39;;;;;;;1.50;1.27;;;;;;;;;;5000373;28;92912;-49
2022/10/04 10:40:17;;;;;;;2.67;1.57;;;;;;;;;;5000589;28;92094;-48
2022/10/04 10:43:03;;;;;;;2.57;1.00;;;;;;;;;;4999900;28;93232;-48
2022/10/04 10:45:47;;;;;;;3.13;2.00;;;;;;;;;;5000042;28;93861;-48
2022/10/04 10:48:20;;;;;;;1.37;1.17;;;;;;;;;;5000246;28;92030;-49
2022/10/04 10:50:58;;;;;;;3.03;1.50;;;;;;;;;;5004391;28;92089;-48
2022/10/04 10:53:41;;;;;;;2.13;1.67;;;;;;;;;;5019128;28;92984;-48
2022/10/04 10:56:31;;;;;;;2.80;1.20;;;;;;;;;;5019657;28;93741;-47
2022/10/04 10:59:17;;;;;;;2.13;1.43;;;;;;;;;;5012664;28;92207;-48
2022/10/04 11:01:52;;;;;;;2.03;1.67;;;;;;;;;;5001853;28;91903;-49
2022/10/04 11:04:32;;;;;;;1.23;1.10;;;;;;;;;;4998964;28;94078;-48
2022/10/04 11:07:04;;;;;;;1.50;1.00;;;;;;;;;;4999676;28;93732;-48
2022/10/04 11:09:33;;;;;;;1.80;1.23;;;;;;;;;;4999945;28;92114;-48
2022/10/04 11:12:14;;;;;;;1.20;1.10;;;;;;;;;;4999656;28;92153;-48
2022/10/04 11:15:13;;;;;;;1.83;1.63;;;;;;;;;;4998772;28;94412;-47
2022/10/04 11:17:46;;;;;;;1.57;0.93;;;;;;;;;;4918315;28;92569;-48
2022/10/04 11:20:33;;;;;;;1.60;1.50;;;;;;;;;;4983974;28;92099;-48
2022/10/04 11:23:14;;;;;;;1.63;1.27;;;;;;;;;;4999332;28;91188;-48
2022/10/04 11:25:58;;;;;;;4.10;1.80;;;;;;;;;;4999473;28;93134;-48
2022/10/04 11:28:29;;;;;;;2.43;1.67;;;;;;;;;;5019397;28;93944;-48
2022/10/04 11:31:14;;;;;;;6.13;2.07;;;;;;;;;;5019243;28;93194;-48
2022/10/04 11:33:53;;;;;;;1.40;1.30;;;;;;;;;;5019367;28;92194;-48
2022/10/04 11:36:27;;;;;;;3.23;1.97;;;;;;;;;;5019052;28;93170;-48
2022/10/04 11:39:02;;;;;;;3.93;1.77;;;;;;;;;;5019587;28;93008;-48
2022/10/04 11:41:35;;;;;;;2.20;1.80;;;;;;;;;;5019970;28;91962;-48
2022/10/04 11:44:14;;;;;;;1.60;1.30;;;;;;;;;;5019071;28;92040;-49
2022/10/04 11:46:45;;;;;;;3.33;2.13;;;;;;;;;;5018676;28;93272;-49
2022/10/04 11:49:18;;;;;;;3.93;2.13;;;;;;;;;;5019128;28;93987;-49
2022/10/04 11:51:58;;;;;;;4.27;1.87;;;;;;;;;;5018804;28;91840;-49
2022/10/04 11:54:46;;;;;;;2.27;1.63;;;;;;;;;;5018985;28;92068;-48
2022/10/04 11:57:18;;;;;;;2.33;1.67;;;;;;;;;;5018018;28;94225;-49
2022/10/04 11:59:49;;;;;;;2.33;1.93;;;;;;;;;;5018380;28;94956;-49
2022/10/04 12:02:32;;;;;;;3.83;1.83;;;;;;;;;;5020127;28;92300;-53
2022/10/04 12:05:06;;;;;;;4.07;2.30;;;;;;;;;;5019444;28;92205;-52
2022/10/04 12:07:38;;;;;;;3.33;2.10;;;;;;;;;;5018842;28;92905;-52
2022/10/04 12:10:14;;;;;;;4.53;2.20;;;;;;;;;;5017945;28;93956;-52
2022/10/04 12:12:50;;;;;;;3.50;2.30;;;;;;;;;;5018953;28;92376;-53
2022/10/04 12:15:24;;;;;;;3.17;2.07;;;;;;;;;;5018725;28;91366;-52
2022/10/04 12:18:04;;;;;;;2.57;1.77;;;;;;;;;;5018180;28;93293;-52
2022/10/04 12:20:43;;;;;;;5.00;3.17;;;;;;;;;;5018679;28;93906;-52
2022/10/04 12:23:21;;;;;;;5.37;2.17;;;;;;;;;;5018254;28;93146;-52
2022/10/04 12:25:53;;;;;;;2.00;1.70;;;;;;;;;;5018806;28;92083;-52
2022/10/04 12:28:37;;;;;;;2.73;1.77;;;;;;;;;;5018250;28;92105;-54
2022/10/04 12:31:22;;;;;;;4.17;2.23;;;;;;;;;;4974396;28;92785;-52
2022/10/04 12:33:53;;;;;;;2.23;1.73;;;;;;;;;;5018156;28;92169;-52
2022/10/04 12:36:25;;;;;;;2.67;1.83;;;;;;;;;;5018989;28;92101;-52
2022/10/04 12:38:56;;;;;;;4.30;1.50;;;;;;;;;;5018433;28;93146;-54
2022/10/04 12:41:31;;;;;;;1.80;1.67;;;;;;;;;;5018443;28;93889;-52
2022/10/04 12:44:02;;;;;;;4.80;2.00;;;;;;;;;;5018402;28;92280;-53
2022/10/04 12:46:33;;;;;;;2.47;1.37;;;;;;;;;;5018291;28;92014;-52
2022/10/04 12:49:09;;;;;;;2.20;1.30;;;;;;;;;;5017356;28;94224;-52
2022/10/04 12:51:40;;;;;;;2.10;1.90;;;;;;;;;;5017885;28;94927;-53
2022/10/04 12:54:13;;;;;;;2.20;1.57;;;;;;;;;;5018143;28;92145;-52
2022/10/04 12:56:45;;;;;;;1.90;1.30;;;;;;;;;;5018248;28;92045;-53
2022/10/04 12:59:21;;;;;;;2.83;2.00;;;;;;;;;;5018022;28;94989;-52
2022/10/04 13:01:52;;;;;;;1.80;1.40;;;;;;;;;;5017609;28;93867;-53
2022/10/04 13:04:23;;;;;;;3.70;1.13;;;;;;;;;;5018445;28;92272;-53
2022/10/04 13:06:56;;;;;;;3.57;0.90;;;;;;;;;;5018534;28;91257;-53
2022/10/04 13:09:26;;;;;;;2.00;1.70;;;;;;;;;;5017604;28;94638;-53
2022/10/04 13:12:00;;;;;;;1.83;1.47;;;;;;;;;;5017435;28;93932;-53
2022/10/04 13:14:30;;;;;;;2.83;1.50;;;;;;;;;;5017106;28;93006;-53
2022/10/04 13:16:59;;;;;;;3.57;1.50;;;;;;;;;;5018386;28;92095;-54
2022/10/04 13:19:51;;;;;;;2.07;1.60;;;;;;;;;;5017474;28;92811;-53
2022/10/04 13:22:31;;;;;;;3.20;1.80;;;;;;;;;;5021167;28;92935;-52
2022/10/04 13:25:24;;;;;;;3.10;2.00;;;;;;;;;;5022037;28;91986;-53
2022/10/04 13:27:55;;;;;;;2.77;2.00;;;;;;;;;;5020767;28;91946;-53
2022/10/04 13:30:25;;;;;;;5.30;2.73;;;;;;;;;;5020801;28;93135;-53
2022/10/04 13:32:56;;;;;;;9.73;6.43;;;;;;;;;;5013080;28;93109;-53
2022/10/04 13:35:25;;;;;;;8.40;6.40;;;;;;;;;;5012982;28;93217;-53
2022/10/04 13:37:59;;;;;;;6.57;4.80;;;;;;;;;;5001270;28;92092;-53
2022/10/04 13:40:31;;;;;;;6.80;4.53;;;;;;;;;;5000181;28;94293;-52
2022/10/04 13:43:14;;;;;;;3.80;2.93;;;;;;;;;;5000795;28;95031;-53
2022/10/04 13:45:51;;;;;;;6.00;3.03;;;;;;;;;;4999453;28;92040;-53
2022/10/04 13:48:35;;;;;;;6.93;3.37;;;;;;;;;;5001134;28;91953;-52
2022/10/04 13:51:10;;;;;;;3.97;2.17;;;;;;;;;;5000406;28;94163;-53
2022/10/04 13:56:42;;;;;;;2.47;2.27;;;;;;;;;;5001462;28;91936;-53
2022/10/04 13:59:13;;;;;;;1.77;1.60;;;;;;;;;;5001602;28;91347;-52
2022/10/04 14:01:53;;;;;;;3.63;1.67;;;;;;;;;;5001014;28;93230;-52
2022/10/04 14:04:33;;;;;;;1.80;1.50;;;;;;;;;;5000808;28;94074;-52
2022/10/04 14:07:25;;;;;;;3.27;1.77;;;;;;;;;;5000576;28;93581;-52
2022/10/04 14:10:00;;;;;;;2.60;1.17;;;;;;;;;;4986392;28;92198;-51
2022/10/04 14:12:39;;;;;;;4.20;1.43;;;;;;;;;;5000332;28;93095;-52
2022/10/04 14:15:11;;;;;;;1.93;1.00;;;;;;;;;;5000260;28;94002;-52
2022/10/04 14:17:55;;;;;;;1.23;1.00;;;;;;;;;;5001379;28;92170;-52
2022/10/04 14:20:27;;;;;;;1.73;1.13;;;;;;;;;;5000311;28;91975;-52
2022/10/04 14:23:10;;;;;;;1.90;1.07;;;;;;;;;;5000397;28;93344;-52
2022/10/04 14:25:54;;;;;;;1.17;0.90;;;;;;;;;;4999002;28;92563;-54
2022/10/04 14:28:41;;;;;;;1.70;1.40;;;;;;;;;;4998907;28;92096;-53
2022/10/04 14:31:19;;;;;;;2.10;1.10;;;;;;;;;;5000291;28;91946;-53
2022/10/04 14:33:56;;;;;;;1.03;0.93;;;;;;;;;;4998890;28;95055;-53
2022/10/04 14:36:32;;;;;;;1.90;1.07;;;;;;;;;;5000545;28;93724;-53
2022/10/04 14:39:05;;;;;;;1.00;1.00;;;;;;;;;;5000724;28;92096;-52
2022/10/04 14:41:43;;;;;;;1.17;1.07;;;;;;;;;;5000969;28;92091;-52
2022/10/04 14:44:23;;;;;;;1.27;0.70;;;;;;;;;;5000229;28;94055;-53
2022/10/04 14:46:54;;;;;;;0.97;0.87;;;;;;;;;;5000451;28;93666;-53
2022/10/04 14:49:25;;;;;;;1.63;1.17;;;;;;;;;;5000197;28;92029;-52
2022/10/04 14:52:01;;;;;;;1.60;0.97;;;;;;;;;;5000699;28;91266;-52
2022/10/04 14:54:34;;;;;;;2.43;1.23;;;;;;;;;;5000030;28;93190;-52
2022/10/04 14:57:02;;;;;;;0.97;0.80;;;;;;;;;;4999924;28;93897;-53
2022/10/04 14:59:57;;;;;;;1.37;1.07;;;;;;;;;;4999716;28;93194;-52
2022/10/04 15:02:48;;;;;;;1.10;0.80;;;;;;;;;;4965667;28;92345;-52
2022/10/04 15:05:37;;;;;;;2.03;1.33;;;;;;;;;;4999638;28;92145;-53
2022/10/04 15:08:22;;;;;;;1.40;0.90;;;;;;;;;;4999234;28;93820;-52
2022/10/04 15:10:50;;;;;;;1.10;1.00;;;;;;;;;;5000386;28;91840;-54
2022/10/04 15:13:20;;;;;;;2.00;1.07;;;;;;;;;;4999936;28;92001;-52
2022/10/04 15:15:57;;;;;;;1.07;0.90;;;;;;;;;;4998930;28;94202;-52
2022/10/04 15:18:31;;;;;;;1.90;1.33;;;;;;;;;;4999717;28;93812;-53
2022/10/04 15:21:01;;;;;;;3.87;1.10;;;;;;;;;;4999186;28;92150;-52
2022/10/04 15:23:30;;;;;;;2.87;1.30;;;;;;;;;;4998999;28;92102;-52
2022/10/04 15:26:00;;;;;;;1.50;1.20;;;;;;;;;;5002094;28;93476;-52
2022/10/04 15:28:32;;;;;;;2.00;1.37;;;;;;;;;;5019761;28;94737;-52
2022/10/04 15:31:02;;;;;;;2.57;1.13;;;;;;;;;;5032370;28;92092;-52
2022/10/04 15:33:33;;;;;;;2.90;1.70;;;;;;;;;;5023683;28;92172;-52
2022/10/04 15:36:26;;;;;;;3.73;1.57;;;;;;;;;;5024808;28;94148;-52